Time;durP1;ratioP1;P1;durP2;ratioP2;P2;SDS_P1;SDS_P2;PMS_P1;PMS_P2;Temp;Humidity;BMP_temperature;BMP_pressure;BME280_temperature;BME280_humidity;BME280_pressure;Samples;Min_cycle;Max_cycle;Signal;HPM_P1;HPM_P2
2023/06/05 00:00:38;;;;;;;;;;;;;;;12.80;80.94;95941.13;5092603;28;20299;-72
2023/06/05 00:03:04;;;;;;;;;;;;;;;12.80;83.00;95938.53;5101678;28;19998;-72
2023/06/05 00:05:31;;;;;;;;;;;;;;;12.87;82.53;95940.69;5100473;28;19924;-72
2023/06/05 00:07:57;;;;;;;;;;;;;;;12.89;82.57;95944.03;5088208;28;19924;-72
2023/06/05 00:10:24;;;;;;;;;;;;;;;12.86;83.84;95947.66;5084435;28;19932;-72
2023/06/05 00:12:50;;;;;;;;;;;;;;;12.82;84.50;95944.44;5088640;28;20378;-73
2023/06/05 00:15:18;;;;;;;;;;;;;;;12.77;84.68;95943.94;5097395;28;19931;-72
2023/06/05 00:17:45;;;;;;;;;;;;;;;12.77;83.56;95948.31;5093022;28;19941;-72
2023/06/05 00:20:11;;;;;;;;;;;;;;;12.80;83.55;95945.50;5094704;28;20100;-72
2023/06/05 00:22:38;;;;;;;;;;;;;;;12.86;82.90;95949.44;5085421;28;19928;-72
2023/06/05 00:25:05;;;;;;;;;;;;;;;12.88;82.91;95944.97;5095623;28;19935;-74
2023/06/05 00:27:32;;;;;;;;;;;;;;;12.90;82.80;95940.47;5087724;28;19970;-73
2023/06/05 00:29:58;;;;;;;;;;;;;;;12.84;83.52;95942.56;5096548;28;19927;-73
2023/06/05 00:32:25;;;;;;;;;;;;;;;12.82;83.31;95941.84;5093445;28;19978;-73
2023/06/05 00:34:52;;;;;;;;;;;;;;;12.77;84.31;95938.72;5101011;28;19976;-74
2023/06/05 00:37:19;;;;;;;;;;;;;;;12.59;85.87;95937.38;5084546;28;19931;-73
2023/06/05 00:39:45;;;;;;;;;;;;;;;12.50;85.78;95936.25;5097292;28;19971;-73
2023/06/05 00:42:11;;;;;;;;;;;;;;;12.41;86.54;95938.63;5090283;28;20410;-74
2023/06/05 00:44:38;;;;;;;;;;;;;;;12.23;86.32;95930.31;5093297;28;20383;-73
2023/06/05 00:47:05;;;;;;;;;;;;;;;12.08;88.20;95934.75;5094524;28;19951;-73
2023/06/05 00:49:33;;;;;;;;;;;;;;;11.97;88.08;95934.63;5080859;28;20023;-73
2023/06/05 00:51:59;;;;;;;;;;;;;;;11.96;87.55;95935.56;5100557;28;19925;-73
2023/06/05 00:54:26;;;;;;;;;;;;;;;11.98;87.70;95938.91;5094050;28;19924;-73
2023/06/05 00:56:53;;;;;;;;;;;;;;;11.93;89.36;95938.34;5101701;28;19924;-73
2023/06/05 00:59:20;;;;;;;;;;;;;;;11.97;88.86;95940.66;5094347;28;19936;-73
2023/06/05 01:01:47;;;;;;;;;;;;;;;11.99;88.59;95931.00;5100804;28;19985;-76
2023/06/05 01:04:13;;;;;;;;;;;;;;;12.04;88.72;95930.69;5088421;28;19963;-75
2023/06/05 01:06:41;;;;;;;;;;;;;;;12.05;89.25;95932.34;5090729;28;19928;-75
2023/06/05 01:09:10;;;;;;;;;;;;;;;12.12;88.22;95938.81;5086919;28;19928;-73
2023/06/05 01:11:39;;;;;;;;;;;;;;;12.19;88.54;95941.84;5083414;28;19925;-73
2023/06/05 01:14:09;;;;;;;;;;;;;;;12.24;88.24;95942.38;5101835;28;20511;-72
2023/06/05 01:16:37;;;;;;;;;;;;;;;12.22;89.17;95937.28;5094409;28;19924;-75
2023/06/05 01:19:03;;;;;;;;;;;;;;;12.21;89.68;95939.97;5098783;28;19928;-75
2023/06/05 01:21:30;;;;;;;;;;;;;;;12.25;88.63;95939.66;5099135;28;19935;-75
2023/06/05 01:23:58;;;;;;;;;;;;;;;12.26;88.32;95933.53;5093966;28;20023;-75
2023/06/05 01:26:29;;;;;;;;;;;;;;;12.24;88.06;95934.59;5089061;28;19932;-75
2023/06/05 01:28:56;;;;;;;;;;;;;;;12.12;88.96;95936.22;5079807;28;20015;-75
2023/06/05 01:31:23;;;;;;;;;;;;;;;12.07;89.41;95935.69;5096936;28;20115;-75
2023/06/05 01:33:52;;;;;;;;;;;;;;;12.12;89.46;95936.22;5097628;28;19934;-75
2023/06/05 01:36:18;;;;;;;;;;;;;;;11.89;92.05;95932.53;5099758;28;19923;-75
2023/06/05 01:38:46;;;;;;;;;;;;;;;11.79;90.44;95934.03;5089004;28;19928;-75
2023/06/05 01:41:15;;;;;;;;;;;;;;;11.58;92.29;95928.47;5099654;28;19923;-75
2023/06/05 01:43:42;;;;;;;;;;;;;;;11.46;93.99;95932.69;5089537;28;19924;-75
2023/06/05 01:46:10;;;;;;;;;;;;;;;11.48;93.26;95937.78;5098949;28;19931;-74
2023/06/05 01:48:38;;;;;;;;;;;;;;;11.45;92.58;95933.59;5082297;28;20018;-75
2023/06/05 01:51:04;;;;;;;;;;;;;;;11.46;92.48;95932.69;5098840;28;19928;-75
2023/06/05 01:53:31;;;;;;;;;;;;;;;11.46;92.73;95929.25;5099155;28;19931;-74
2023/06/05 01:55:57;;;;;;;;;;;;;;;11.49;92.86;95922.09;5091781;28;20014;-75
2023/06/05 01:58:26;;;;;;;;;;;;;;;11.45;93.39;95930.19;5098564;28;19928;-75
2023/06/05 02:00:53;;;;;;;;;;;;;;;11.43;93.74;95934.66;5092071;28;19975;-75
2023/06/05 02:03:19;;;;;;;;;;;;;;;11.40;94.22;95933.06;5101660;28;19931;-75
2023/06/05 02:05:46;;;;;;;;;;;;;;;11.38;95.51;95924.53;5093596;28;19951;-75
2023/06/05 02:08:13;;;;;;;;;;;;;;;11.43;94.59;95925.09;5097383;28;20014;-75
2023/06/05 02:10:43;;;;;;;;;;;;;;;11.46;94.25;95927.50;5088790;28;19939;-75
2023/06/05 02:13:10;;;;;;;;;;;;;;;11.53;94.47;95927.94;5091551;28;19928;-75
2023/06/05 02:15:37;;;;;;;;;;;;;;;11.58;94.13;95925.88;5098397;28;19924;-75
2023/06/05 02:18:04;;;;;;;;;;;;;;;11.58;94.59;95925.88;5090958;28;19994;-75
2023/06/05 02:20:32;;;;;;;;;;;;;;;11.57;94.03;95932.00;5098991;28;19925;-75
2023/06/05 02:22:58;;;;;;;;;;;;;;;11.54;94.25;95927.84;5088267;28;19928;-75
2023/06/05 02:25:25;;;;;;;;;;;;;;;11.36;97.01;95942.81;5097213;28;19936;-75
2023/06/05 02:27:52;;;;;;;;;;;;;;;11.33;96.23;95936.97;5095231;28;19938;-75
2023/06/05 02:30:18;;;;;;;;;;;;;;;11.38;95.14;95932.31;5099942;28;19978;-75
2023/06/05 02:32:45;;;;;;;;;;;;;;;11.32;95.97;95930.97;5089314;28;19932;-73
2023/06/05 02:35:12;;;;;;;;;;;;;;;11.29;96.26;95933.75;5095307;28;20398;-72
2023/06/05 02:37:43;;;;;;;;;;;;;;;11.24;96.66;95922.84;5091015;28;19928;-73
2023/06/05 02:40:10;;;;;;;;;;;;;;;11.26;96.95;95926.16;5094352;28;20347;-73
2023/06/05 02:42:36;;;;;;;;;;;;;;;11.21;97.09;95930.81;5097842;28;19950;-73
2023/06/05 02:45:03;;;;;;;;;;;;;;;11.24;96.85;95924.63;5092455;28;19928;-73
2023/06/05 02:47:30;;;;;;;;;;;;;;;11.25;96.69;95927.09;5094792;28;19932;-72
2023/06/05 02:49:57;;;;;;;;;;;;;;;11.27;96.76;95926.97;5100964;28;20303;-72
2023/06/05 02:52:24;;;;;;;;;;;;;;;11.22;96.39;95924.69;5078171;28;19993;-73
2023/06/05 02:54:50;;;;;;;;;;;;;;;11.04;97.92;95921.47;5086604;28;19928;-73
2023/06/05 02:57:17;;;;;;;;;;;;;;;10.81;100.00;95925.50;5096370;28;19930;-72
2023/06/05 02:59:43;;;;;;;;;;;;;;;10.82;99.71;95910.78;5094649;28;20020;-73
2023/06/05 03:02:09;;;;;;;;;;;;;;;10.83;99.46;95925.41;5085940;28;19932;-73
2023/06/05 03:04:39;;;;;;;;;;;;;;;10.82;99.21;95921.97;5084942;28;20386;-73
2023/06/05 03:07:09;;;;;;;;;;;;;;;10.77;100.00;95928.38;5074927;28;20033;-73
2023/06/05 03:09:35;;;;;;;;;;;;;;;10.78;100.00;95923.09;5094595;28;19925;-73
2023/06/05 03:12:02;;;;;;;;;;;;;;;10.65;100.00;95919.59;5080673;28;19924;-74
2023/06/05 03:14:30;;;;;;;;;;;;;;;10.61;100.00;95921.53;5092325;28;19924;-74
2023/06/05 03:16:58;;;;;;;;;;;;;;;10.56;100.00;95918.38;5086766;28;19989;-74
2023/06/05 03:19:24;;;;;;;;;;;;;;;10.57;100.00;95914.88;5090465;28;20027;-74
2023/06/05 03:21:53;;;;;;;;;;;;;;;10.61;100.00;95913.78;5085344;28;19930;-73
2023/06/05 03:24:24;;;;;;;;;;;;;;;10.67;99.61;95925.50;5092219;28;20401;-73
2023/06/05 03:26:51;;;;;;;;;;;;;;;10.49;100.00;95918.84;5093653;28;19938;-73
2023/06/05 03:29:17;;;;;;;;;;;;;;;10.10;100.00;95918.50;5078056;28;20306;-72
2023/06/05 03:31:43;;;;;;;;;;;;;;;10.07;100.00;95921.25;5094797;28;19977;-73
2023/06/05 03:34:10;;;;;;;;;;;;;;;10.14;100.00;95921.75;5090694;28;20404;-73
2023/06/05 03:36:37;;;;;;;;;;;;;;;10.16;100.00;95918.16;5101739;28;20390;-74
2023/06/05 03:39:04;;;;;;;;;;;;;;;10.25;100.00;95926.28;5086996;28;19969;-73
2023/06/05 03:41:32;;;;;;;;;;;;;;;10.23;100.00;95928.13;5092519;28;19924;-72
2023/06/05 03:43:58;;;;;;;;;;;;;;;10.30;100.00;95924.28;5089367;28;19928;-72
2023/06/05 03:46:24;;;;;;;;;;;;;;;10.43;100.00;95924.41;5104133;28;20034;-72
2023/06/05 03:48:53;;;;;;;;;;;;;;;10.37;100.00;95929.00;5096002;28;19924;-72
2023/06/05 03:51:19;;;;;;;;;;;;;;;10.23;100.00;95925.53;5092514;28;19928;-72
2023/06/05 03:53:46;;;;;;;;;;;;;;;10.22;100.00;95929.88;5086738;28;20013;-72
2023/06/05 03:56:15;;;;;;;;;;;;;;;10.36;100.00;95924.75;5086024;28;20383;-71
2023/06/05 03:58:44;;;;;;;;;;;;;;;10.31;100.00;95937.16;5089087;28;20334;-74
2023/06/05 04:01:12;;;;;;;;;;;;;;;10.31;100.00;95926.81;5091786;28;19923;-76
2023/06/05 04:03:38;;;;;;;;;;;;;;;10.32;100.00;95923.28;5097609;28;19964;-74
2023/06/05 04:06:05;;;;;;;;;;;;;;;10.34;100.00;95931.78;5097094;28;19934;-74
2023/06/05 04:08:32;;;;;;;;;;;;;;;10.37;100.00;95930.75;5100363;28;20015;-74
2023/06/05 04:10:58;;;;;;;;;;;;;;;10.18;100.00;95925.81;5094844;28;19969;-74
2023/06/05 04:13:24;;;;;;;;;;;;;;;10.17;100.00;95924.97;5098386;28;20479;-74
2023/06/05 04:15:52;;;;;;;;;;;;;;;10.15;100.00;95931.16;5096476;28;19928;-73
2023/06/05 04:18:18;;;;;;;;;;;;;;;10.25;100.00;95937.50;5095154;28;19927;-74
2023/06/05 04:20:44;;;;;;;;;;;;;;;10.28;100.00;95939.09;5095557;28;20533;-72
2023/06/05 04:23:10;;;;;;;;;;;;;;;10.37;100.00;95936.78;5098052;28;19930;-72
2023/06/05 04:25:40;;;;;;;;;;;;;;;10.44;100.00;95937.25;5098265;28;19982;-71
2023/06/05 04:28:06;;;;;;;;;;;;;;;10.46;100.00;95935.41;5082601;28;19963;-71
2023/06/05 04:30:33;;;;;;;;;;;;;;;10.53;100.00;95944.47;5098205;28;20337;-72
2023/06/05 04:33:01;;;;;;;;;;;;;;;10.57;100.00;95942.53;5092289;28;20441;-72
2023/06/05 04:35:27;;;;;;;;;;;;;;;10.62;100.00;95936.16;5097818;28;19924;-71
2023/06/05 04:37:54;;;;;;;;;;;;;;;10.74;100.00;95939.75;5088440;28;19928;-71
2023/06/05 04:40:20;;;;;;;;;;;;;;;10.92;100.00;95944.75;5097492;28;19931;-72
2023/06/05 04:42:46;;;;;;;;;;;;;;;11.07;100.00;95938.63;5098546;28;19932;-71
2023/06/05 04:45:13;;;;;;;;;;;;;;;11.06;100.00;95940.38;5090011;28;20427;-71
2023/06/05 04:47:39;;;;;;;;;;;;;;;11.19;100.00;95940.44;5095935;28;20333;-71
2023/06/05 04:50:07;;;;;;;;;;;;;;;11.25;100.00;95939.22;5111155;28;20360;-71
2023/06/05 04:52:34;;;;;;;;;;;;;;;11.31;100.00;95934.50;5094395;28;19924;-71
2023/06/05 04:55:01;;;;;;;;;;;;;;;11.48;100.00;95930.81;5096335;28;19934;-71
2023/06/05 04:57:28;;;;;;;;;;;;;;;11.61;100.00;95934.31;5096038;28;19925;-71
2023/06/05 04:59:54;;;;;;;;;;;;;;;11.71;100.00;95936.28;5098831;28;19924;-71
2023/06/05 05:02:21;;;;;;;;;;;;;;;11.88;100.00;95930.06;5092833;28;19924;-71
2023/06/05 05:04:47;;;;;;;;;;;;;;;11.98;100.00;95933.72;5097729;28;20279;-71
2023/06/05 05:07:16;;;;;;;;;;;;;;;12.17;100.00;95930.72;5096478;28;19924;-71
2023/06/05 05:09:42;;;;;;;;;;;;;;;12.46;100.00;95939.16;5094498;28;19924;-72
2023/06/05 05:12:09;;;;;;;;;;;;;;;12.42;100.00;95935.09;5085113;28;20046;-71
2023/06/05 05:14:35;;;;;;;;;;;;;;;12.53;100.00;95945.59;5088866;28;19964;-72
2023/06/05 05:17:02;;;;;;;;;;;;;;;12.64;100.00;95945.69;5099336;28;19924;-72
2023/06/05 05:19:28;;;;;;;;;;;;;;;12.77;100.00;95949.13;5098933;28;20310;-72
2023/06/05 05:21:55;;;;;;;;;;;;;;;12.93;100.00;95943.69;5091412;28;20425;-71
2023/06/05 05:24:23;;;;;;;;;;;;;;;13.09;100.00;95940.88;5107824;28;19974;-72
2023/06/05 05:26:51;;;;;;;;;;;;;;;13.24;100.00;95941.59;5086679;28;19928;-72
2023/06/05 05:29:17;;;;;;;;;;;;;;;13.43;100.00;95947.16;5085972;28;20298;-75
2023/06/05 05:31:43;;;;;;;;;;;;;;;13.51;100.00;95950.03;5089275;28;19924;-74
2023/06/05 05:34:10;;;;;;;;;;;;;;;13.67;100.00;95943.72;5094093;28;19928;-74
2023/06/05 05:36:37;;;;;;;;;;;;;;;13.79;100.00;95940.22;5098193;28;19932;-74
2023/06/05 05:39:04;;;;;;;;;;;;;;;13.91;100.00;95935.91;5096096;28;19950;-74
2023/06/05 05:41:31;;;;;;;;;;;;;;;14.11;100.00;95947.47;5093634;28;19973;-74
2023/06/05 05:43:58;;;;;;;;;;;;;;;14.29;100.00;95943.50;5092385;28;19924;-74
2023/06/05 05:46:24;;;;;;;;;;;;;;;14.41;100.00;95945.16;5087014;28;19924;-74
2023/06/05 05:48:51;;;;;;;;;;;;;;;14.58;99.98;95953.53;5091491;28;19957;-80
2023/06/05 05:51:17;;;;;;;;;;;;;;;14.41;90.41;95944.34;5096653;28;19974;-73
2023/06/05 05:53:43;;;;;;;;;;;;;;;14.33;88.51;95944.09;5089057;28;19924;-75
2023/06/05 05:56:10;;;;;;;;;;;;;;;14.16;87.79;95953.97;5092464;28;19928;-74
2023/06/05 05:58:37;;;;;;;;;;;;;;;13.99;87.97;95951.81;5094257;28;20398;-75
2023/06/05 06:01:04;;;;;;;;;;;;;;;14.22;86.29;95958.75;5093021;28;19924;-75
2023/06/05 06:03:32;;;;;;;;;;;;;;;14.25;87.79;95955.91;5094315;28;19928;-75
2023/06/05 06:05:58;;;;;;;;;;;;;;;14.24;87.14;95951.66;5100811;28;19924;-75
2023/06/05 06:08:26;;;;;;;;;;;;;;;14.53;85.53;95948.66;5091730;28;19936;-76
2023/06/05 06:10:53;;;;;;;;;;;;;;;14.68;85.16;95947.50;5096910;28;19924;-76
2023/06/05 06:13:19;;;;;;;;;;;;;;;14.75;84.26;95950.47;5090233;28;19945;-76
2023/06/05 06:15:47;;;;;;;;;;;;;;;14.81;84.67;95946.56;5093568;28;19967;-76
2023/06/05 06:18:13;;;;;;;;;;;;;;;15.19;86.37;95947.00;5088162;28;20014;-76
2023/06/05 06:20:40;;;;;;;;;;;;;;;15.69;89.53;95947.44;5096713;28;19928;-76
2023/06/05 06:23:06;;;;;;;;;;;;;;;15.82;84.48;95939.44;5090021;28;19928;-76
2023/06/05 06:25:33;;;;;;;;;;;;;;;16.23;88.87;95944.84;5090982;28;20302;-77
2023/06/05 06:27:59;;;;;;;;;;;;;;;16.19;73.93;95942.47;5088659;28;19932;-77
2023/06/05 06:30:26;;;;;;;;;;;;;;;16.14;71.10;95942.03;5091540;28;19990;-76
2023/06/05 06:32:54;;;;;;;;;;;;;;;16.39;68.77;95940.84;5096831;28;20301;-76
2023/06/05 06:35:20;;;;;;;;;;;;;;;16.79;71.82;95944.53;5095689;28;19932;-75
2023/06/05 06:37:46;;;;;;;;;;;;;;;17.28;77.87;95945.53;5099678;28;19931;-76
2023/06/05 06:40:14;;;;;;;;;;;;;;;17.61;72.86;95952.25;5095264;28;19925;-75
2023/06/05 06:42:40;;;;;;;;;;;;;;;17.97;67.87;95947.34;5101243;28;19981;-75
2023/06/05 06:45:07;;;;;;;;;;;;;;;18.24;61.01;95946.66;5101373;28;20302;-76
2023/06/05 06:47:33;;;;;;;;;;;;;;;18.47;61.07;95941.97;5097701;28;19982;-76
2023/06/05 06:50:01;;;;;;;;;;;;;;;18.71;65.24;95950.22;5105529;28;19981;-76
2023/06/05 06:52:27;;;;;;;;;;;;;;;18.80;58.99;95946.75;5096558;28;19939;-76
2023/06/05 06:54:53;;;;;;;;;;;;;;;18.72;58.64;95943.16;5095203;28;19976;-76
2023/06/05 06:57:20;;;;;;;;;;;;;;;18.98;58.11;95933.69;5094816;28;19936;-74
2023/06/05 06:59:46;;;;;;;;;;;;;;;19.04;60.51;95941.00;5092911;28;20014;-76
2023/06/05 07:02:13;;;;;;;;;;;;;;;19.33;61.74;95937.41;5097405;28;19931;-74
2023/06/05 07:04:41;;;;;;;;;;;;;;;19.65;57.88;95938.78;5103801;28;19928;-75
2023/06/05 07:07:11;;;;;;;;;;;;;;;19.74;54.00;95940.53;5098061;28;19978;-76
2023/06/05 07:09:37;;;;;;;;;;;;;;;19.55;52.83;95937.03;5101640;28;19924;-75
2023/06/05 07:12:05;;;;;;;;;;;;;;;19.57;52.78;95929.81;5094251;28;19924;-76
2023/06/05 07:14:33;;;;;;;;;;;;;;;19.47;54.00;95933.47;5096403;28;20382;-75
2023/06/05 07:16:59;;;;;;;;;;;;;;;19.23;55.08;95936.63;5094613;27;20046;-74
2023/06/05 07:19:26;;;;;;;;;;;;;;;19.26;54.27;95931.09;5103609;28;19932;-74
2023/06/05 07:21:52;;;;;;;;;;;;;;;19.75;55.99;95942.19;5100944;28;20347;-75
2023/06/05 07:24:20;;;;;;;;;;;;;;;20.10;53.25;95935.25;5105647;28;19985;-77
2023/06/05 07:26:46;;;;;;;;;;;;;;;20.50;53.22;95935.63;5099100;28;19928;-76
2023/06/05 07:29:12;;;;;;;;;;;;;;;21.09;53.42;95933.19;5090672;28;19931;-77
2023/06/05 07:31:39;;;;;;;;;;;;;;;21.10;54.76;95941.91;5096751;28;20382;-76
2023/06/05 07:34:05;;;;;;;;;;;;;;;21.23;50.73;95939.69;5095512;28;19928;-76
2023/06/05 07:36:31;;;;;;;;;;;;;;;21.34;52.78;95941.25;5102566;28;19931;-75
2023/06/05 07:38:58;;;;;;;;;;;;;;;21.49;51.15;95934.38;5097276;28;19923;-77
2023/06/05 07:41:26;;;;;;;;;;;;;;;21.20;53.48;95924.19;5115168;28;19928;-76
2023/06/05 07:43:52;;;;;;;;;;;;;;;21.53;48.91;95927.81;5087771;28;20027;-74
2023/06/05 07:46:19;;;;;;;;;;;;;;;21.59;48.51;95932.44;5097328;28;19928;-74
2023/06/05 07:48:45;;;;;;;;;;;;;;;21.71;50.85;95928.50;5092378;28;19931;-76
2023/06/05 07:51:11;;;;;;;;;;;;;;;21.73;45.25;95933.63;5103796;28;19934;-77
2023/06/05 07:53:37;;;;;;;;;;;;;;;21.60;45.48;95936.72;5094221;28;19931;-75
2023/06/05 07:56:04;;;;;;;;;;;;;;;21.81;48.85;95933.66;5093350;28;19924;-75
2023/06/05 07:58:32;;;;;;;;;;;;;;;21.81;44.93;95944.19;5094113;28;19928;-76
2023/06/05 08:00:59;;;;;;;;;;;;;;;21.57;45.72;95937.03;5092559;28;19931;-75
2023/06/05 08:03:25;;;;;;;;;;;;;;;22.03;50.00;95934.84;5102571;28;20363;-76
2023/06/05 08:05:51;;;;;;;;;;;;;;;21.79;47.32;95935.63;5095108;28;19977;-76
2023/06/05 08:08:18;;;;;;;;;;;;;;;21.91;47.21;95934.31;5084545;28;20447;-76
2023/06/05 08:10:44;;;;;;;;;;;;;;;22.03;48.20;95940.13;5092575;28;19928;-76
2023/06/05 08:13:10;;;;;;;;;;;;;;;21.95;46.09;95934.81;5090236;28;19931;-78
2023/06/05 08:15:38;;;;;;;;;;;;;;;22.04;47.19;95938.31;5102225;28;19929;-78
2023/06/05 08:18:04;;;;;;;;;;;;;;;22.22;51.28;95941.66;5103450;28;19934;-77
2023/06/05 08:20:31;;;;;;;;;;;;;;;22.16;50.22;95934.38;5103934;28;20387;-76
2023/06/05 08:22:57;;;;;;;;;;;;;;;22.15;47.35;95932.75;5088672;28;19931;-76
2023/06/05 08:25:24;;;;;;;;;;;;;;;22.38;52.00;95936.38;5094052;28;20381;-76
2023/06/05 08:27:50;;;;;;;;;;;;;;;21.86;45.40;95933.97;5089216;28;19928;-75
2023/06/05 08:30:16;;;;;;;;;;;;;;;21.97;48.98;95928.41;5099272;28;20382;-76
2023/06/05 08:32:44;;;;;;;;;;;;;;;22.56;52.27;95932.72;5096851;28;19946;-75
2023/06/05 08:35:12;;;;;;;;;;;;;;;22.37;45.20;95932.09;5097053;28;19934;-76
2023/06/05 08:37:38;;;;;;;;;;;;;;;22.66;55.23;95933.38;5096586;28;19931;-76
2023/06/05 08:40:10;;;;;;;;;;;;;;;22.73;53.08;95931.72;5093438;28;19928;-77
2023/06/05 08:42:37;;;;;;;;;;;;;;;22.54;49.27;95924.13;5097613;28;19932;-76
2023/06/05 08:45:04;;;;;;;;;;;;;;;22.59;52.68;95919.22;5097868;28;19931;-77
2023/06/05 08:47:31;;;;;;;;;;;;;;;22.57;54.18;95916.72;5107095;28;19928;-75
2023/06/05 08:50:02;;;;;;;;;;;;;;;22.74;51.88;95928.09;5092330;28;19982;-75
2023/06/05 08:52:30;;;;;;;;;;;;;;;22.60;50.85;95920.84;5091026;28;19929;-75
2023/06/05 08:54:58;;;;;;;;;;;;;;;22.36;49.63;95919.88;5096607;28;20062;-76
2023/06/05 08:57:24;;;;;;;;;;;;;;;22.69;53.89;95928.59;5094895;28;19932;-75
2023/06/05 08:59:50;;;;;;;;;;;;;;;22.61;49.56;95918.03;5086623;28;19932;-76
2023/06/05 09:02:17;;;;;;;;;;;;;;;22.91;52.34;95927.06;5096353;28;19928;-75
2023/06/05 09:04:43;;;;;;;;;;;;;;;23.03;52.66;95930.22;5083714;28;19932;-77
2023/06/05 09:07:12;;;;;;;;;;;;;;;22.89;51.64;95928.22;5090151;28;19928;-76
2023/06/05 09:09:38;;;;;;;;;;;;;;;23.07;52.98;95933.34;5091005;28;19930;-76
2023/06/05 09:12:06;;;;;;;;;;;;;;;23.04;54.18;95931.03;5086533;28;20516;-75
2023/06/05 09:14:33;;;;;;;;;;;;;;;22.56;52.84;95920.34;5092991;28;19924;-76
2023/06/05 09:17:00;;;;;;;;;;;;;;;22.97;62.84;95925.59;5093670;28;20027;-75
2023/06/05 09:19:35;;;;;;;;;;;;;;;23.16;58.45;95925.19;5086498;28;20019;-75
2023/06/05 09:22:02;;;;;;;;;;;;;;;23.12;55.51;95929.19;5084001;28;19925;-75
2023/06/05 09:24:30;;;;;;;;;;;;;;;23.04;53.20;95921.28;5091343;28;19932;-75
2023/06/05 09:26:57;;;;;;;;;;;;;;;23.23;54.00;95925.34;5083314;28;19928;-75
2023/06/05 09:29:24;;;;;;;;;;;;;;;22.70;54.18;95921.50;5082462;28;19931;-75
2023/06/05 09:31:51;;;;;;;;;;;;;;;23.18;57.27;95930.31;5094115;28;20351;-75
2023/06/05 09:34:27;;;;;;;;;;;;;;;23.06;55.29;95918.47;5094139;28;19977;-74
2023/06/05 09:36:54;;;;;;;;;;;;;;;23.26;58.44;95913.63;5094515;28;19932;-75
2023/06/05 09:39:21;;;;;;;;;;;;;;;23.23;53.77;95920.06;5092365;28;19923;-75
2023/06/05 09:41:51;;;;;;;;;;;;;;;23.47;57.11;95919.13;5090932;28;20361;-73
2023/06/05 09:44:17;;;;;;;;;;;;;;;23.34;56.31;95917.03;5097170;28;20018;-75
2023/06/05 09:46:53;;;;;;;;;;;;;;;23.48;53.04;95919.97;5099211;28;19928;-75
2023/06/05 09:49:20;;;;;;;;;;;;;;;23.50;56.70;95921.41;5101803;28;19978;-75
2023/06/05 09:51:46;;;;;;;;;;;;;;;23.56;51.73;95915.44;5100829;28;19972;-76
2023/06/05 09:54:13;;;;;;;;;;;;;;;23.57;56.15;95911.81;5088159;28;19924;-75
2023/06/05 09:56:41;;;;;;;;;;;;;;;23.58;51.57;95912.63;5100450;28;21281;-75
2023/06/05 09:59:11;;;;;;;;;;;;;;;23.69;55.61;95904.31;5092283;28;20015;-75
2023/06/05 10:01:37;;;;;;;;;;;;;;;23.63;56.20;95905.00;5101061;28;19927;-75
2023/06/05 10:04:07;;;;;;;;;;;;;;;23.88;57.49;95903.09;5094876;28;20418;-75
2023/06/05 10:06:35;;;;;;;;;;;;;;;23.45;54.00;95907.09;5100816;28;19973;-74
2023/06/05 10:09:01;;;;;;;;;;;;;;;24.01;56.51;95907.78;5092593;28;19930;-75
2023/06/05 10:11:27;;;;;;;;;;;;;;;24.03;54.31;95903.13;5084608;28;19935;-75
2023/06/05 10:13:54;;;;;;;;;;;;;;;23.72;52.88;95903.97;5097494;28;19954;-73
2023/06/05 10:16:21;;;;;;;;;;;;;;;23.11;56.71;95909.03;5090861;28;19941;-75
2023/06/05 10:18:49;;;;;;;;;;;;;;;22.69;55.44;95915.41;5101756;28;19924;-74
2023/06/05 10:21:16;;;;;;;;;;;;;;;23.17;55.78;95907.53;5085789;28;19947;-76
2023/06/05 10:23:43;;;;;;;;;;;;;;;23.17;51.99;95910.16;5101844;28;20030;-76
2023/06/05 10:26:16;;;;;;;;;;;;;;;23.13;55.30;95903.56;5097144;28;19927;-76
2023/06/05 10:28:49;;;;;;;;;;;;;;;23.10;56.91;95910.03;5079287;28;19924;-76
2023/06/05 10:31:22;;;;;;;;;;;;;;;22.70;57.69;95918.84;5087821;28;19924;-75
2023/06/05 10:34:03;;;;;;;;;;;;;;;22.45;54.81;95903.03;5088913;28;19935;-75
2023/06/05 10:36:41;;;;;;;;;;;;;;;22.21;54.93;95911.81;5083520;28;19928;-73
2023/06/05 10:39:08;;;;;;;;;;;;;;;22.02;56.99;95906.78;5091620;28;19924;-75
2023/06/05 10:41:35;;;;;;;;;;;;;;;21.77;62.09;95913.88;5100222;28;19928;-74
2023/06/05 10:44:01;;;;;;;;;;;;;;;21.82;58.97;95908.94;5105155;28;19923;-75
2023/06/05 10:46:27;;;;;;;;;;;;;;;;;;5105329;28;19934;-76
2023/06/05 10:49:07;;;;;;;;;;;;;;;22.39;59.30;95898.41;5099166;28;19924;-76
2023/06/05 10:51:37;;;;;;;;;;;;;;;22.85;59.57;95903.97;5102987;28;19969;-76
2023/06/05 10:54:03;;;;;;;;;;;;;;;22.69;55.86;95896.06;5096726;28;19931;-76
2023/06/05 10:56:48;;;;;;;;;;;;;;;22.57;54.03;95900.88;5103928;28;20253;-76
2023/06/05 10:59:15;;;;;;;;;;;;;;;22.38;52.81;95894.16;5090315;28;19936;-76
2023/06/05 11:01:41;;;;;;;;;;;;;;;22.79;58.83;95896.72;5104848;28;19934;-76
2023/06/05 11:04:08;;;;;;;;;;;;;;;22.74;51.89;95892.94;5087128;28;20395;-76
2023/06/05 11:06:37;;;;;;;;;;;;;;;23.16;57.82;95890.84;5100122;28;20464;-78
2023/06/05 11:09:07;;;;;;;;;;;;;;;23.47;55.17;95884.75;5100366;28;19976;-78
2023/06/05 11:11:48;;;;;;;;;;;;;;;23.45;52.91;95883.31;5097040;28;20298;-77
2023/06/05 11:14:15;;;;;;;;;;;;;;;23.67;51.46;95880.72;5097463;28;19935;-75
2023/06/05 11:16:41;;;;;;;;;;;;;;;23.88;49.03;95881.91;5091694;28;19924;-76
2023/06/05 11:19:29;;;;;;;;;;;;;;;23.62;51.25;95877.75;5100339;28;19980;-76
2023/06/05 11:22:08;;;;;;;;;;;;;;;24.04;54.37;95891.56;5090972;28;19955;-77
2023/06/05 11:24:35;;;;;;;;;;;;;;;24.09;51.26;95894.47;5104856;28;20414;-76
2023/06/05 11:27:01;;;;;;;;;;;;;;;23.65;47.17;95884.50;5097288;28;19924;-76
2023/06/05 11:29:29;;;;;;;;;;;;;;;23.92;52.00;95883.22;5089854;28;19928;-75
2023/06/05 11:31:55;;;;;;;;;;;;;;;24.09;48.66;95883.91;5098216;28;19924;-74
2023/06/05 11:34:21;;;;;;;;;;;;;;;24.20;48.12;95877.38;5103099;28;19969;-74
2023/06/05 11:36:49;;;;;;;;;;;;;;;24.24;51.13;95868.88;5103275;28;20348;-74
2023/06/05 11:39:16;;;;;;;;;;;;;;;24.43;46.13;95880.81;5100718;28;19967;-74
2023/06/05 11:41:50;;;;;;;;;;;;;;;24.13;47.19;95866.66;5098032;28;20023;-75
2023/06/05 11:44:16;;;;;;;;;;;;;;;24.16;46.58;95868.97;5100865;28;20010;-74
2023/06/05 11:46:44;;;;;;;;;;;;;;;24.13;51.50;95870.13;5101221;28;19927;-74
2023/06/05 11:49:23;;;;;;;;;;;;;;;24.17;48.92;95870.59;5106248;28;19927;-74
2023/06/05 11:51:49;;;;;;;;;;;;;;;23.37;47.20;95870.94;5099971;28;20359;-75
2023/06/05 11:54:25;;;;;;;;;;;;;;;23.34;47.74;95864.19;5094436;28;19993;-74
2023/06/05 11:56:52;;;;;;;;;;;;;;;23.64;46.48;95867.81;5103918;28;20332;-76
2023/06/05 11:59:18;;;;;;;;;;;;;;;23.21;46.40;95868.38;5089718;28;19929;-73
2023/06/05 12:01:45;;;;;;;;;;;;;;;23.14;45.84;95858.50;5104715;28;20032;-74
2023/06/05 12:04:11;;;;;;;;;;;;;;;23.36;48.08;95878.06;5090058;28;20448;-74
2023/06/05 12:06:41;;;;;;;;;;;;;;;23.42;47.12;95872.06;5089891;28;19929;-74
2023/06/05 12:09:07;;;;;;;;;;;;;;;23.05;45.75;95869.28;5085244;28;20040;-75
2023/06/05 12:11:35;;;;;;;;;;;;;;;23.26;49.08;95866.88;5082277;28;20015;-73
2023/06/05 12:14:01;;;;;;;;;;;;;;;23.01;47.21;95870.59;5103214;28;19927;-74
2023/06/05 12:16:32;;;;;;;;;;;;;;;23.23;48.34;95859.28;5097660;28;19932;-74
2023/06/05 12:18:58;;;;;;;;;;;;;;;23.33;46.23;95859.91;5091927;28;20461;-73
2023/06/05 12:21:25;;;;;;;;;;;;;;;23.45;48.55;95846.28;5089333;28;20321;-74
2023/06/05 12:23:52;;;;;;;;;;;;;;;23.69;49.36;95846.16;5090619;28;19932;-74
2023/06/05 12:26:18;;;;;;;;;;;;;;;23.76;45.40;95844.47;5098155;28;19935;-74
2023/06/05 12:28:47;;;;;;;;;;;;;;;23.61;45.08;95843.53;5079461;28;19932;-73
2023/06/05 12:31:32;;;;;;;;;;;;;;;23.60;47.21;95842.72;5094938;28;19928;-75
2023/06/05 12:33:58;;;;;;;;;;;;;;;23.65;44.69;95850.94;5079425;28;19935;-74
2023/06/05 12:36:24;;;;;;;;;;;;;;;23.65;44.41;95850.94;5080951;28;19935;-74
2023/06/05 12:38:51;;;;;;;;;;;;;;;23.40;43.00;95839.72;5084648;28;19933;-75
2023/06/05 12:41:17;;;;;;;;;;;;;;;23.44;42.60;95845.47;5084951;28;19928;-73
2023/06/05 12:43:43;;;;;;;;;;;;;;;23.36;42.86;95845.50;5095044;28;19928;-73
2023/06/05 12:46:11;;;;;;;;;;;;;;;22.98;42.83;95839.25;5097195;28;19928;-74